createdAt,value
2018-01-05T00:02:24.122Z,8.55
2018-01-05T00:04:52.504Z,8.53
2018-01-05T00:07:20.838Z,8.62
2018-01-05T00:09:49.591Z,8.54
2018-01-05T00:12:17.917Z,8.49
2018-01-05T00:14:46.243Z,8.52
2018-01-05T00:17:14.573Z,8.49
2018-01-05T00:19:42.885Z,8.49
2018-01-05T00:22:11.218Z,8.50
2018-01-05T00:24:39.558Z,8.48
2018-01-05T00:27:07.925Z,8.53
2018-01-05T00:29:36.215Z,8.51
2018-01-05T00:32:04.550Z,8.49
2018-01-05T00:34:32.861Z,8.51
2018-01-05T00:37:01.193Z,8.50
2018-01-05T00:39:29.510Z,8.49
2018-01-05T00:41:57.862Z,8.50
2018-01-05T00:44:26.183Z,8.42
2018-01-05T00:46:54.955Z,8.42
2018-01-05T00:49:23.286Z,8.43
2018-01-05T00:51:51.601Z,8.46
2018-01-05T00:54:19.944Z,8.40
2018-01-05T00:56:48.250Z,8.41
2018-01-05T00:59:16.623Z,8.42
2018-01-05T01:01:44.942Z,8.45
2018-01-05T01:04:13.282Z,8.44
2018-01-05T01:06:41.588Z,8.45
2018-01-05T01:09:09.925Z,8.39
2018-01-05T01:11:38.238Z,8.48
2018-01-05T01:14:06.575Z,8.47
2018-01-05T01:16:34.886Z,8.48
2018-01-05T01:19:03.225Z,8.49
2018-01-05T01:21:31.534Z,8.50
2018-01-05T01:23:59.875Z,8.42
2018-01-05T01:26:28.189Z,8.42
2018-01-05T01:28:56.568Z,8.40
2018-01-05T01:31:27.903Z,8.38
2018-01-05T01:33:57.167Z,8.44
2018-01-05T01:36:25.469Z,8.43
2018-01-05T01:38:53.806Z,8.47
2018-01-05T01:41:22.117Z,8.42
2018-01-05T01:43:50.458Z,8.50
2018-01-05T01:46:18.774Z,8.52
2018-01-05T01:48:50.040Z,8.49
2018-01-05T01:51:18.374Z,8.53
2018-01-05T01:53:46.709Z,8.53
2018-01-05T01:56:15.027Z,8.48
2018-01-05T01:58:43.360Z,8.47
2018-01-05T02:01:11.666Z,8.47
2018-01-05T02:03:39.997Z,8.47
2018-01-05T02:06:09.678Z,8.54
2018-01-05T02:08:38.009Z,8.45
2018-01-05T02:11:06.315Z,8.42
2018-01-05T02:13:34.649Z,8.41
2018-01-05T02:16:02.958Z,8.50
2018-01-05T02:18:31.289Z,8.51
2018-01-05T02:20:59.610Z,8.43
2018-01-05T02:23:28.166Z,8.43
2018-01-05T02:25:56.483Z,8.43
2018-01-05T02:28:24.817Z,8.46
2018-01-05T02:30:53.130Z,8.45
2018-01-05T02:33:21.467Z,8.42
2018-01-05T02:35:49.777Z,8.35
2018-01-05T02:38:18.111Z,8.29
2018-01-05T02:40:46.422Z,8.30
2018-01-05T02:43:14.754Z,8.40
2018-01-05T02:45:43.058Z,8.35
2018-01-05T02:48:11.411Z,8.36
2018-01-05T02:50:39.713Z,8.33
2018-01-05T02:53:08.020Z,8.37
2018-01-05T02:55:36.345Z,8.24
2018-01-05T02:58:04.658Z,8.17
2018-01-05T03:00:32.985Z,8.25
2018-01-05T03:03:01.290Z,8.26
2018-01-05T03:05:29.626Z,8.18
2018-01-05T03:07:57.933Z,8.13
2018-01-05T03:10:26.262Z,8.19
2018-01-05T03:12:54.566Z,8.16
2018-01-05T03:15:22.895Z,8.14
2018-01-05T03:17:51.206Z,8.16
2018-01-05T03:20:19.553Z,8.18
2018-01-05T03:22:47.865Z,8.20
2018-01-05T03:25:16.206Z,8.12
2018-01-05T03:27:44.516Z,8.12
2018-01-05T03:30:12.846Z,8.18
2018-01-05T03:32:41.162Z,8.15
2018-01-05T03:35:09.493Z,8.12
2018-01-05T03:37:37.807Z,8.16
2018-01-05T03:40:06.138Z,8.16
2018-01-05T03:42:34.446Z,8.13
2018-01-05T03:45:02.773Z,8.14
2018-01-05T03:47:31.090Z,8.07
2018-01-05T03:49:59.420Z,8.17
2018-01-05T03:52:27.730Z,8.21
2018-01-05T03:54:56.061Z,8.13
2018-01-05T03:57:24.381Z,8.08
2018-01-05T03:59:52.715Z,8.16
2018-01-05T04:02:21.034Z,8.11
2018-01-05T04:04:49.366Z,7.99
2018-01-05T04:07:17.678Z,7.96
2018-01-05T04:09:46.013Z,7.92
2018-01-05T04:12:14.337Z,7.86
2018-01-05T04:14:42.671Z,7.97
2018-01-05T04:17:10.977Z,7.92
2018-01-05T04:19:39.317Z,7.88
2018-01-05T04:22:07.629Z,7.91
2018-01-05T04:24:35.961Z,7.88
2018-01-05T04:27:04.273Z,7.82
2018-01-05T04:29:32.605Z,7.76
2018-01-05T04:32:00.922Z,7.78
2018-01-05T04:34:29.257Z,7.79
2018-01-05T04:36:57.579Z,7.95
2018-01-05T04:39:25.942Z,8.05
2018-01-05T04:41:54.233Z,8.00
2018-01-05T04:44:22.561Z,7.99
2018-01-05T04:46:50.870Z,8.06
2018-01-05T04:49:19.206Z,8.08
2018-01-05T04:51:47.536Z,7.99
2018-01-05T04:54:15.846Z,7.99
2018-01-05T04:56:44.173Z,7.99
2018-01-05T04:59:12.486Z,8.03
2018-01-05T05:01:40.820Z,8.07
2018-01-05T05:04:09.126Z,8.09
2018-01-05T05:06:37.461Z,8.09
2018-01-05T05:09:05.777Z,8.19
2018-01-05T05:11:34.113Z,8.20
2018-01-05T05:14:02.426Z,8.31
2018-01-05T05:16:30.756Z,8.21
2018-01-05T05:18:59.074Z,8.22
2018-01-05T05:21:27.406Z,8.26
2018-01-05T05:23:55.717Z,8.27
2018-01-05T05:26:24.054Z,8.28
2018-01-05T05:28:52.361Z,8.36
2018-01-05T05:31:20.760Z,8.31
2018-01-05T05:33:49.057Z,8.32
2018-01-05T05:36:17.394Z,8.33
2018-01-05T05:38:45.705Z,8.24
2018-01-05T05:41:14.048Z,8.30
2018-01-05T05:43:42.383Z,8.29
2018-01-05T05:46:10.686Z,8.28
2018-01-05T05:48:39.003Z,8.33
2018-01-05T05:51:07.340Z,8.39
2018-01-05T05:53:35.650Z,8.39
2018-01-05T05:56:03.986Z,8.44
2018-01-05T05:58:32.294Z,8.56
2018-01-05T06:01:00.634Z,8.48
2018-01-05T06:03:28.946Z,8.57
2018-01-05T06:05:57.310Z,8.49
2018-01-05T06:08:25.594Z,8.46
2018-01-05T06:10:53.926Z,8.50
2018-01-05T06:13:22.237Z,8.49
2018-01-05T06:15:50.581Z,8.43
2018-01-05T06:18:18.893Z,8.41
2018-01-05T06:20:47.225Z,8.38
2018-01-05T06:23:15.545Z,8.29
2018-01-05T06:25:43.877Z,8.36
2018-01-05T06:28:12.194Z,8.30
2018-01-05T06:30:40.521Z,8.30
2018-01-05T06:33:08.833Z,8.27
2018-01-05T06:35:37.204Z,8.37
2018-01-05T06:38:05.482Z,8.29
2018-01-05T06:40:33.813Z,8.28
2018-01-05T06:43:02.130Z,8.32
2018-01-05T06:45:30.461Z,8.29
2018-01-05T06:47:58.769Z,8.12
2018-01-05T06:50:27.130Z,8.04
2018-01-05T06:52:55.438Z,8.06
2018-01-05T06:55:23.758Z,7.92
2018-01-05T06:57:52.089Z,7.76
2018-01-05T07:00:20.395Z,7.83
2018-01-05T07:02:48.736Z,7.78
2018-01-05T07:05:17.054Z,7.73
2018-01-05T07:07:45.394Z,7.61
2018-01-05T07:10:13.707Z,7.54
2018-01-05T07:12:42.033Z,7.59
2018-01-05T07:15:10.351Z,7.49
2018-01-05T07:17:38.683Z,7.49
2018-01-05T07:20:06.994Z,7.47
2018-01-05T07:22:35.330Z,7.54
2018-01-05T07:25:03.638Z,7.52
2018-01-05T07:27:31.970Z,7.62
2018-01-05T07:30:00.286Z,7.56
2018-01-05T07:32:28.622Z,7.51
2018-01-05T07:34:56.927Z,7.52
2018-01-05T07:37:25.258Z,7.66
2018-01-05T07:39:53.569Z,7.53
2018-01-05T07:42:21.898Z,7.63
2018-01-05T07:44:50.235Z,7.58
2018-01-05T07:47:18.561Z,7.56
2018-01-05T07:49:46.883Z,7.54
2018-01-05T07:52:15.226Z,7.49
2018-01-05T07:54:43.556Z,7.47
2018-01-05T07:57:11.920Z,7.41
2018-01-05T07:59:40.267Z,7.44
2018-01-05T08:02:08.782Z,7.43
2018-01-05T08:04:37.118Z,7.48
2018-01-05T08:07:05.466Z,7.45
2018-01-05T08:09:33.761Z,7.56
2018-01-05T08:12:02.098Z,7.45
2018-01-05T08:14:31.434Z,7.50
2018-01-05T08:16:59.933Z,7.47
2018-01-05T08:19:28.251Z,7.52
2018-01-05T08:21:56.714Z,7.49
2018-01-05T08:24:25.031Z,7.49
2018-01-05T08:26:53.362Z,7.54
2018-01-05T08:29:21.836Z,7.55
2018-01-05T08:31:50.169Z,7.62
2018-01-05T08:34:18.482Z,7.57
2018-01-05T08:36:46.818Z,7.50
2018-01-05T08:39:15.121Z,7.54
2018-01-05T08:41:43.453Z,7.58
2018-01-05T08:44:11.762Z,7.58
2018-01-05T08:46:40.216Z,7.58
2018-01-05T08:49:08.527Z,7.67
2018-01-05T08:51:36.877Z,7.53
2018-01-05T08:54:05.181Z,7.62
2018-01-05T08:56:33.493Z,7.62
2018-01-05T08:59:01.834Z,7.62
2018-01-05T09:01:30.140Z,7.68
2018-01-05T09:03:58.478Z,7.64
2018-01-05T09:06:27.046Z,7.62
2018-01-05T09:08:55.382Z,7.63
2018-01-05T09:11:23.698Z,7.64
2018-01-05T09:13:52.049Z,7.60
2018-01-05T09:16:20.363Z,7.62
2018-01-05T09:18:48.702Z,7.64
2018-01-05T09:21:17.014Z,7.58
2018-01-05T09:23:45.346Z,7.58
2018-01-05T09:26:13.659Z,7.53
2018-01-05T09:28:41.985Z,7.56
2018-01-05T09:31:10.318Z,7.50
2018-01-05T09:33:38.622Z,7.57
2018-01-05T09:36:06.978Z,7.57
2018-01-05T09:38:35.310Z,7.63
2018-01-05T09:41:03.626Z,7.59
2018-01-05T09:43:31.959Z,7.64
2018-01-05T09:46:00.263Z,7.61
2018-01-05T09:48:28.598Z,7.65
2018-01-05T09:50:56.916Z,7.69
2018-01-05T09:53:25.251Z,7.65
2018-01-05T09:55:53.807Z,7.67
2018-01-05T09:58:22.144Z,7.57
2018-01-05T10:00:50.454Z,7.56
2018-01-05T10:03:18.830Z,7.61
2018-01-05T10:05:47.147Z,7.55
2018-01-05T10:08:15.482Z,7.59
2018-01-05T10:10:43.827Z,7.53
2018-01-05T10:13:12.166Z,7.58
2018-01-05T10:15:40.473Z,7.53
2018-01-05T10:18:08.811Z,7.63
2018-01-05T10:20:37.125Z,7.56
2018-01-05T10:23:05.463Z,7.54
2018-01-05T10:25:33.774Z,7.66
2018-01-05T10:28:02.111Z,7.59
2018-01-05T10:30:30.430Z,7.60
2018-01-05T10:32:58.758Z,7.62
2018-01-05T10:35:28.002Z,7.60
2018-01-05T10:37:56.334Z,7.59
2018-01-05T10:40:24.654Z,7.62
2018-01-05T10:42:52.991Z,7.68
2018-01-05T10:45:21.306Z,7.60
2018-01-05T10:47:49.685Z,7.68
2018-01-05T10:50:17.958Z,7.72
2018-01-05T10:52:46.487Z,7.70
2018-01-05T10:55:14.797Z,7.72
2018-01-05T10:57:43.119Z,7.82
2018-01-05T11:00:11.438Z,7.68
2018-01-05T11:02:39.749Z,7.76
2018-01-05T11:05:08.086Z,7.80
2018-01-05T11:07:36.397Z,7.85
2018-01-05T11:10:04.730Z,7.91
2018-01-05T11:12:33.050Z,7.91
2018-01-05T11:15:01.386Z,7.90
2018-01-05T11:17:29.702Z,7.94
2018-01-05T11:19:58.498Z,7.92
2018-01-05T11:22:26.811Z,7.88
2018-01-05T11:24:55.154Z,7.92
2018-01-05T11:27:23.663Z,8.01
2018-01-05T11:29:52.030Z,8.00
2018-01-05T11:32:20.345Z,8.00
2018-01-05T11:34:48.679Z,7.98
2018-01-05T11:37:16.998Z,8.02
2018-01-05T11:39:45.334Z,8.18
2018-01-05T11:42:13.650Z,8.26
2018-01-05T11:44:41.989Z,8.16
2018-01-05T11:47:10.309Z,8.13
2018-01-05T11:49:38.650Z,8.06
2018-01-05T11:52:06.966Z,8.16
2018-01-05T11:54:35.310Z,8.11
2018-01-05T11:57:03.627Z,8.09
2018-01-05T11:59:31.966Z,8.17
2018-01-05T12:02:00.278Z,8.11
2018-01-05T12:04:28.623Z,8.13
2018-01-05T12:06:56.937Z,8.13
2018-01-05T12:09:25.274Z,8.13
2018-01-05T12:11:53.586Z,8.15
2018-01-05T12:14:21.922Z,8.09
2018-01-05T12:16:50.241Z,8.08
2018-01-05T12:19:18.573Z,8.07
2018-01-05T12:21:46.890Z,8.12
2018-01-05T12:24:15.236Z,8.12
2018-01-05T12:26:43.554Z,8.21
2018-01-05T12:29:11.889Z,8.11
2018-01-05T12:31:40.210Z,8.28
2018-01-05T12:34:16.490Z,8.32
2018-01-05T12:36:44.781Z,8.30
2018-01-05T12:39:13.109Z,8.30
2018-01-05T12:41:41.430Z,8.18
2018-01-05T12:44:09.763Z,8.16
2018-01-05T12:46:38.062Z,8.18
2018-01-05T12:49:06.399Z,8.23
2018-01-05T12:51:34.725Z,8.19
2018-01-05T12:54:03.062Z,8.19
2018-01-05T12:56:31.369Z,8.25
2018-01-05T12:58:59.702Z,8.37
2018-01-05T13:01:28.011Z,8.39
2018-01-05T13:03:56.319Z,8.24
2018-01-05T13:06:24.658Z,8.38
2018-01-05T13:08:52.982Z,8.30
2018-01-05T13:11:21.313Z,8.28
2018-01-05T13:13:49.632Z,8.66
2018-01-05T13:16:17.954Z,8.60
2018-01-05T13:18:47.206Z,8.49
2018-01-05T13:21:15.538Z,8.45
2018-01-05T13:23:43.845Z,8.32
2018-01-05T13:26:12.188Z,8.44
2018-01-05T13:28:40.498Z,8.29
2018-01-05T13:31:08.834Z,8.35
2018-01-05T13:33:37.156Z,8.29
2018-01-05T13:36:05.491Z,8.35
2018-01-05T13:38:34.226Z,8.37
2018-01-05T13:41:02.562Z,8.33
2018-01-05T13:43:30.878Z,8.36
2018-01-05T13:45:59.214Z,8.47
2018-01-05T13:48:27.533Z,8.44
2018-01-05T13:50:55.863Z,8.42
2018-01-05T13:53:24.175Z,8.44
2018-01-05T13:55:52.522Z,8.41
2018-01-05T13:58:21.667Z,8.44
2018-01-05T14:00:50.049Z,8.44
2018-01-05T14:03:18.362Z,8.44
2018-01-05T14:05:46.698Z,8.45
2018-01-05T14:08:15.053Z,8.41
2018-01-05T14:10:43.352Z,8.44
2018-01-05T14:13:11.666Z,8.45
2018-01-05T14:15:40.002Z,8.42
2018-01-05T14:18:09.288Z,8.40
2018-01-05T14:20:37.623Z,8.65
2018-01-05T14:23:05.937Z,8.68
2018-01-05T14:25:34.287Z,8.64
2018-01-05T14:28:02.639Z,8.64
2018-01-05T14:30:30.986Z,8.71
2018-01-05T14:32:59.306Z,8.72
2018-01-05T14:35:27.650Z,8.88
2018-01-05T14:37:56.931Z,8.97
2018-01-05T14:40:25.276Z,9.11
2018-01-05T14:42:53.594Z,8.88
2018-01-05T14:45:21.925Z,9.12
2018-01-05T14:47:50.251Z,9.15
2018-01-05T14:50:18.582Z,9.17
2018-01-05T14:52:46.903Z,9.25
2018-01-05T14:55:15.246Z,9.41
2018-01-05T14:57:43.597Z,9.50
2018-01-05T15:00:11.934Z,9.58
2018-01-05T15:02:40.254Z,9.57
2018-01-05T15:05:08.590Z,9.51
2018-01-05T15:07:36.926Z,9.45
2018-01-05T15:10:05.242Z,9.25
2018-01-05T15:12:33.570Z,9.47
2018-01-05T15:15:01.888Z,9.33
2018-01-05T15:17:31.313Z,9.23
2018-01-05T15:19:59.590Z,9.13
2018-01-05T15:22:27.935Z,9.05
2018-01-05T15:24:56.243Z,9.18
2018-01-05T15:27:24.602Z,9.05
2018-01-05T15:29:52.920Z,8.92
2018-01-05T15:32:21.262Z,8.89
2018-01-05T15:34:49.579Z,8.84
2018-01-05T15:37:18.933Z,8.66
2018-01-05T15:39:47.282Z,8.63
2018-01-05T15:42:15.629Z,8.77
2018-01-05T15:44:43.959Z,8.79
2018-01-05T15:47:12.314Z,8.74
2018-01-05T15:49:40.630Z,8.83
2018-01-05T15:52:08.965Z,8.88
2018-01-05T15:54:37.282Z,8.76
2018-01-05T15:57:05.624Z,8.67
2018-01-05T15:59:33.938Z,8.62
2018-01-05T16:02:02.282Z,8.31
2018-01-05T16:04:30.598Z,8.34
2018-01-05T16:06:58.937Z,8.40
2018-01-05T16:09:27.254Z,8.33
2018-01-05T16:11:55.594Z,8.16
2018-01-05T16:14:24.072Z,8.20
2018-01-05T16:16:52.494Z,8.27
2018-01-05T16:19:20.810Z,8.46
2018-01-05T16:21:49.146Z,8.63
2018-01-05T16:24:17.463Z,8.79
2018-01-05T16:26:45.801Z,8.95
2018-01-05T16:29:14.113Z,9.12
2018-01-05T16:31:46.289Z,9.14
2018-01-05T16:34:14.606Z,9.03
2018-01-05T16:36:42.992Z,9.19
2018-01-05T16:39:11.257Z,9.24
2018-01-05T16:41:39.726Z,9.27
2018-01-05T16:44:08.031Z,9.36
2018-01-05T16:46:36.369Z,9.42
2018-01-05T16:49:04.682Z,9.41
2018-01-05T16:51:33.022Z,9.07
2018-01-05T16:54:01.338Z,8.88
2018-01-05T16:56:30.171Z,8.76
2018-01-05T16:58:58.485Z,8.54
2018-01-05T17:01:26.822Z,8.40
2018-01-05T17:03:55.192Z,8.43
2018-01-05T17:06:23.510Z,8.28
2018-01-05T17:08:51.825Z,8.34
2018-01-05T17:11:20.154Z,8.24
2018-01-05T17:13:48.485Z,8.21
2018-01-05T17:16:17.758Z,8.27
2018-01-05T17:18:46.158Z,8.37
2018-01-05T17:21:14.464Z,8.26
2018-01-05T17:23:42.804Z,8.31
2018-01-05T17:26:11.111Z,8.30
2018-01-05T17:28:39.447Z,8.36
2018-01-05T17:31:07.762Z,8.30
2018-01-05T17:33:36.094Z,8.32
2018-01-05T17:36:04.411Z,8.30
2018-01-05T17:38:32.746Z,8.24
2018-01-05T17:41:01.066Z,8.34
2018-01-05T17:43:29.385Z,8.24
2018-01-05T17:45:57.703Z,8.26
2018-01-05T17:48:26.033Z,8.28
2018-01-05T17:50:54.349Z,8.26
2018-01-05T17:53:22.691Z,8.32
2018-01-05T17:55:51.006Z,8.47
2018-01-05T17:58:19.344Z,8.29
2018-01-05T18:00:47.658Z,8.31
2018-01-05T18:03:15.998Z,8.39
2018-01-05T18:05:44.318Z,8.41
2018-01-05T18:08:12.654Z,8.47
2018-01-05T18:10:40.974Z,8.35
2018-01-05T18:13:09.310Z,8.44
2018-01-05T18:15:37.627Z,8.46
2018-01-05T18:18:05.967Z,8.25
2018-01-05T18:20:34.286Z,8.21
2018-01-05T18:23:02.617Z,8.14
2018-01-05T18:25:30.934Z,8.17
2018-01-05T18:27:59.278Z,8.09
2018-01-05T18:30:27.634Z,7.88
2018-01-05T18:32:55.950Z,7.94
2018-01-05T18:35:24.333Z,7.87
2018-01-05T18:37:52.613Z,7.78
2018-01-05T18:40:20.928Z,7.82
2018-01-05T18:42:49.270Z,7.84
2018-01-05T18:45:17.587Z,7.79
2018-01-05T18:47:45.973Z,7.83
2018-01-05T18:50:14.239Z,7.83
2018-01-05T18:52:42.574Z,7.82
2018-01-05T18:55:10.886Z,7.87
2018-01-05T18:57:39.222Z,7.78
2018-01-05T19:00:07.542Z,7.79
2018-01-05T19:02:35.881Z,7.74
2018-01-05T19:05:04.202Z,7.71
2018-01-05T19:07:32.542Z,7.67
2018-01-05T19:10:01.797Z,7.64
2018-01-05T19:12:30.134Z,7.62
2018-01-05T19:14:58.470Z,7.68
2018-01-05T19:17:26.791Z,7.62
2018-01-05T19:19:55.146Z,7.70
2018-01-05T19:22:23.473Z,7.69
2018-01-05T19:24:51.811Z,7.78
2018-01-05T19:27:20.150Z,7.71
2018-01-05T19:29:49.433Z,7.72
2018-01-05T19:32:17.746Z,7.83
2018-01-05T19:34:46.081Z,7.87
2018-01-05T19:37:14.400Z,7.95
2018-01-05T19:39:42.730Z,8.00
2018-01-05T19:42:11.046Z,8.11
2018-01-05T19:44:40.217Z,8.07
2018-01-05T19:47:08.543Z,8.05
2018-01-05T19:49:38.480Z,8.13
2018-01-05T19:52:07.586Z,7.99
2018-01-05T19:54:35.964Z,8.00
2018-01-05T19:57:05.194Z,8.01
2018-01-05T19:59:33.530Z,7.96
2018-01-05T20:02:01.854Z,7.96
2018-01-05T20:04:30.185Z,8.01
2018-01-05T20:06:58.502Z,7.99
2018-01-05T20:09:26.842Z,7.97
2018-01-05T20:11:55.150Z,8.04
2018-01-05T20:14:23.486Z,8.08
2018-01-05T20:16:51.829Z,7.99
2018-01-05T20:19:20.141Z,8.05
2018-01-05T20:21:48.461Z,8.01
2018-01-05T20:24:16.801Z,8.01
2018-01-05T20:26:45.116Z,7.99
2018-01-05T20:29:13.454Z,7.94
2018-01-05T20:31:41.769Z,8.07
2018-01-05T20:34:10.120Z,8.13
2018-01-05T20:36:38.426Z,8.16
2018-01-05T20:39:06.768Z,8.33
2018-01-05T20:44:27.104Z,8.47
2018-01-05T20:46:56.390Z,8.52
2018-01-05T20:49:24.751Z,8.63
2018-01-05T20:51:53.089Z,8.64
2018-01-05T20:54:21.430Z,8.71
2018-01-05T20:56:49.752Z,8.77
2018-01-05T20:59:18.085Z,8.72
2018-01-05T21:01:46.393Z,8.69
2018-01-05T21:04:14.734Z,8.62
2018-01-05T21:06:44.181Z,8.70
2018-01-05T21:09:12.518Z,8.65
2018-01-05T21:11:40.834Z,8.73
2018-01-05T21:14:09.171Z,8.71
2018-01-05T21:16:37.477Z,8.80
2018-01-05T21:19:05.819Z,8.95
2018-01-05T21:21:34.126Z,9.00
2018-01-05T21:24:02.457Z,9.04
2018-01-05T21:26:31.058Z,9.05
2018-01-05T21:28:59.400Z,8.95
2018-01-05T21:31:27.714Z,8.88
2018-01-05T21:33:56.054Z,8.89
2018-01-05T21:36:24.445Z,8.76
2018-01-05T21:38:52.954Z,8.65
2018-01-05T21:41:21.373Z,8.66
2018-01-05T21:43:49.823Z,8.64
2018-01-05T21:46:18.768Z,8.65
2018-01-05T21:48:47.172Z,8.59
2018-01-05T21:51:15.646Z,8.64
2018-01-05T21:53:44.164Z,8.52
2018-01-05T21:56:12.624Z,8.58
2018-01-05T21:58:41.102Z,8.51
2018-01-05T22:01:09.552Z,8.47
2018-01-05T22:03:37.976Z,8.48
2018-01-05T22:06:06.559Z,8.50
2018-01-05T22:08:35.957Z,8.48
2018-01-05T22:11:04.853Z,8.40
2018-01-05T22:13:34.577Z,8.34
2018-01-05T22:16:03.349Z,8.34
2018-01-05T22:18:32.104Z,8.26
2018-01-05T22:21:00.904Z,8.16
2018-01-05T22:23:29.628Z,8.09
2018-01-05T22:25:58.418Z,8.09
2018-01-05T22:28:27.416Z,7.94
2018-01-05T22:30:56.664Z,7.91
2018-01-05T22:33:25.421Z,7.79
2018-01-05T22:35:54.219Z,7.88
2018-01-05T22:38:23.066Z,7.80
2018-01-05T22:40:52.824Z,7.88
2018-01-05T22:43:22.045Z,7.86
2018-01-05T22:45:51.196Z,7.78
2018-01-05T22:48:20.064Z,7.70
2018-01-05T22:50:48.862Z,7.75
2018-01-05T22:53:18.416Z,7.67
2018-01-05T22:55:47.654Z,7.68
2018-01-05T22:58:16.423Z,7.57
2018-01-05T23:00:45.267Z,7.51
2018-01-05T23:03:14.011Z,7.62
2018-01-05T23:05:43.229Z,7.64
2018-01-05T23:08:12.163Z,7.61
2018-01-05T23:10:40.987Z,7.64
2018-01-05T23:13:09.387Z,7.73
2018-01-05T23:15:37.709Z,7.60
2018-01-05T23:18:06.022Z,7.64
2018-01-05T23:20:34.354Z,7.59
2018-01-05T23:23:02.662Z,7.64
2018-01-05T23:25:30.990Z,7.58
2018-01-05T23:27:59.293Z,7.63
2018-01-05T23:30:27.622Z,7.57
2018-01-05T23:32:55.941Z,7.41
2018-01-05T23:35:24.262Z,7.47
2018-01-05T23:37:52.569Z,7.51
2018-01-05T23:40:20.902Z,7.48
2018-01-05T23:42:49.206Z,7.42
2018-01-05T23:45:17.530Z,7.36
2018-01-05T23:47:45.834Z,7.37
2018-01-05T23:50:14.168Z,7.20
2018-01-05T23:52:42.478Z,6.97
2018-01-05T23:55:10.810Z,7.03
2018-01-05T23:57:39.113Z,7.15
